createdAt,value
2023-01-02T00:02:27.730Z,56.13
2023-01-02T00:04:54.677Z,56.11
2023-01-02T00:07:21.274Z,56.20
2023-01-02T00:09:47.854Z,56.05
2023-01-02T00:12:14.500Z,56.10
2023-01-02T00:14:41.035Z,56.25
2023-01-02T00:17:08.753Z,56.25
2023-01-02T00:19:35.307Z,55.88
2023-01-02T00:22:01.847Z,55.47
2023-01-02T00:24:28.445Z,54.67
2023-01-02T00:26:54.981Z,54.36
2023-01-02T00:29:21.507Z,54.32
2023-01-02T00:31:48.146Z,54.79
2023-01-02T00:34:14.770Z,54.52
2023-01-02T00:36:41.333Z,54.63
2023-01-02T00:39:07.978Z,54.62
2023-01-02T00:41:34.621Z,53.82
2023-01-02T00:44:01.269Z,54.52
2023-01-02T00:46:27.941Z,54.62
2023-01-02T00:48:54.590Z,54.42
2023-01-02T00:51:21.129Z,54.41
2023-01-02T00:53:47.682Z,54.54
2023-01-02T00:56:14.306Z,54.57
2023-01-02T00:58:40.842Z,54.76
2023-01-02T01:01:07.473Z,54.97
2023-01-02T01:03:34.386Z,55.27
2023-01-02T01:06:07.531Z,55.00
2023-01-02T01:08:36.350Z,55.02
2023-01-02T01:11:14.039Z,55.50
2023-01-02T01:13:40.868Z,55.33
2023-01-02T01:16:10.134Z,55.41
2023-01-02T01:18:37.569Z,55.65
2023-01-02T01:21:15.604Z,55.72
2023-01-02T01:23:42.751Z,55.44
2023-01-02T01:26:12.556Z,55.62
2023-01-02T01:28:39.852Z,55.96
2023-01-02T01:31:12.044Z,55.67
2023-01-02T01:33:39.965Z,55.42
2023-01-02T01:36:09.644Z,55.63
2023-01-02T01:38:36.384Z,55.49
2023-01-02T01:41:03.451Z,55.55
2023-01-02T01:43:36.008Z,55.61
2023-01-02T01:46:03.388Z,55.16
2023-01-02T01:48:30.498Z,55.22
2023-01-02T01:50:57.398Z,55.30
2023-01-02T01:53:24.705Z,55.60
2023-01-02T01:56:00.466Z,55.52
2023-01-02T01:58:31.588Z,56.03
2023-01-02T02:00:58.756Z,56.06
2023-01-02T02:03:29.509Z,55.45
2023-01-02T02:05:58.771Z,56.11
2023-01-02T02:08:52.261Z,55.91
2023-01-02T02:11:19.182Z,55.47
2023-01-02T02:13:46.659Z,55.47
2023-01-02T02:16:23.674Z,55.42
2023-01-02T02:19:08.669Z,55.54
2023-01-02T02:22:07.348Z,55.96
2023-01-02T02:24:52.084Z,55.59
2023-01-02T02:27:27.818Z,55.78
2023-01-02T02:30:08.227Z,55.93
2023-01-02T02:32:40.602Z,55.98
2023-01-02T02:35:27.036Z,56.13
2023-01-02T02:38:15.897Z,56.05
2023-01-02T02:41:12.024Z,55.70
2023-01-02T02:43:50.954Z,55.66
2023-01-02T02:46:38.112Z,55.57
2023-01-02T02:49:35.370Z,55.72
2023-01-02T02:52:06.087Z,55.42
2023-01-02T02:54:53.941Z,55.50
2023-01-02T02:57:22.516Z,55.60
2023-01-02T02:59:49.104Z,55.45
2023-01-02T03:02:16.951Z,55.03
2023-01-02T03:04:51.217Z,55.04
2023-01-02T03:07:42.170Z,54.36
2023-01-02T03:10:34.309Z,54.68
2023-01-02T03:13:19.370Z,54.80
2023-01-02T03:16:04.509Z,54.79
2023-01-02T03:19:05.747Z,54.70
2023-01-02T03:21:46.172Z,54.01
2023-01-02T03:24:16.489Z,54.33
2023-01-02T03:26:47.345Z,53.93
2023-01-02T03:29:22.054Z,54.16
2023-01-02T03:31:53.093Z,54.06
2023-01-02T03:34:32.443Z,53.51
2023-01-02T03:37:03.852Z,53.54
2023-01-02T03:39:35.368Z,53.20
2023-01-02T03:42:08.591Z,53.02
2023-01-02T03:44:43.238Z,52.90
2023-01-02T03:47:46.942Z,53.27
2023-01-02T03:50:41.941Z,53.32
2023-01-02T03:53:08.558Z,53.06
2023-01-02T03:55:38.322Z,52.78
2023-01-02T03:58:39.475Z,53.33
2023-01-02T04:01:12.752Z,53.27
2023-01-02T04:03:48.124Z,52.87
2023-01-02T04:06:19.475Z,52.91
2023-01-02T04:08:56.592Z,53.54
2023-01-02T04:11:25.924Z,52.85
2023-01-02T04:13:58.353Z,52.71
2023-01-02T04:16:30.062Z,52.85
2023-01-02T04:19:24.499Z,52.28
2023-01-02T04:21:54.425Z,52.37
2023-01-02T04:24:28.563Z,52.36
2023-01-02T04:27:29.051Z,52.29
2023-01-02T04:29:56.635Z,51.88
2023-01-02T04:32:24.489Z,52.05
2023-01-02T04:34:53.011Z,51.57
2023-01-02T04:37:35.989Z,52.38
2023-01-02T04:40:12.504Z,51.99
2023-01-02T04:42:39.091Z,51.93
2023-01-02T04:45:06.178Z,51.31
2023-01-02T04:47:32.741Z,51.45
2023-01-02T04:49:59.436Z,51.44
2023-01-02T04:52:26.059Z,51.24
2023-01-02T04:54:52.646Z,51.33
2023-01-02T04:57:19.320Z,50.83
2023-01-02T04:59:45.862Z,50.89
2023-01-02T05:02:12.463Z,50.71
2023-01-02T05:04:39.178Z,50.67
2023-01-02T05:07:05.742Z,50.73
2023-01-02T05:09:32.629Z,50.64
2023-01-02T05:11:59.329Z,50.75
2023-01-02T05:14:25.924Z,50.52
2023-01-02T05:16:52.482Z,50.30
2023-01-02T05:19:19.115Z,50.56
2023-01-02T05:22:04.185Z,50.30
2023-01-02T05:24:30.909Z,50.36
2023-01-02T05:26:57.481Z,50.66
2023-01-02T05:29:24.074Z,50.75
2023-01-02T05:31:50.702Z,50.38
2023-01-02T05:34:17.701Z,50.97
2023-01-02T05:36:44.255Z,51.37
2023-01-02T05:39:12.473Z,51.35
2023-01-02T05:41:39.483Z,50.74
2023-01-02T05:44:08.710Z,50.79
2023-01-02T05:46:35.950Z,51.16
2023-01-02T05:49:09.703Z,51.44
2023-01-02T05:51:36.775Z,51.82
2023-01-02T05:54:04.080Z,51.62
2023-01-02T05:56:31.487Z,51.42
2023-01-02T05:58:58.534Z,51.20
2023-01-02T06:01:28.117Z,53.85
2023-01-02T06:03:58.004Z,51.96
2023-01-02T06:06:46.170Z,54.91
2023-01-02T06:09:14.292Z,52.47
2023-01-02T06:11:41.177Z,51.26
2023-01-02T06:14:09.053Z,51.95
2023-01-02T06:16:35.647Z,53.16
2023-01-02T06:19:02.359Z,54.18
2023-01-02T06:21:29.129Z,52.33
2023-01-02T06:23:57.281Z,52.27
2023-01-02T06:26:31.202Z,52.76
2023-01-02T06:29:01.232Z,52.78
2023-01-02T06:31:29.577Z,53.29
2023-01-02T06:34:01.361Z,53.25
2023-01-02T06:36:32.839Z,51.63
2023-01-02T06:38:59.491Z,52.10
2023-01-02T06:41:26.658Z,51.59
2023-01-02T06:43:53.349Z,52.00
2023-01-02T06:46:22.233Z,52.30
2023-01-02T06:48:50.350Z,52.25
2023-01-02T06:51:19.708Z,53.01
2023-01-02T06:53:46.579Z,52.77
2023-01-02T06:56:15.528Z,52.09
2023-01-02T06:58:42.113Z,52.55
2023-01-02T07:01:11.575Z,53.06
2023-01-02T07:03:38.285Z,53.07
2023-01-02T07:06:08.022Z,52.43
2023-01-02T07:08:34.653Z,52.98
2023-01-02T07:11:14.452Z,52.85
2023-01-02T07:13:42.761Z,52.01
2023-01-02T07:16:11.840Z,52.65
2023-01-02T07:18:38.956Z,52.23
2023-01-02T07:21:07.049Z,52.31
2023-01-02T07:23:34.452Z,52.52
2023-01-02T07:26:03.123Z,52.97
2023-01-02T07:28:30.548Z,53.14
2023-01-02T07:31:02.441Z,52.58
2023-01-02T07:33:29.927Z,53.02
2023-01-02T07:36:06.463Z,53.17
2023-01-02T07:38:33.605Z,53.62
2023-01-02T07:41:00.341Z,52.97
2023-01-02T07:43:26.978Z,53.50
2023-01-02T07:45:53.712Z,53.09
2023-01-02T07:48:20.328Z,52.94
2023-01-02T07:50:47.094Z,53.54
2023-01-02T07:53:13.916Z,53.41
2023-01-02T07:55:40.554Z,53.58
2023-01-02T07:58:07.731Z,53.55
2023-01-02T08:00:34.465Z,53.64
2023-01-02T08:03:01.279Z,53.63
2023-01-02T08:05:27.975Z,54.16
2023-01-02T08:07:54.592Z,54.49
2023-01-02T08:10:21.216Z,55.24
2023-01-02T08:12:47.832Z,55.13
2023-01-02T08:15:14.400Z,56.05
2023-01-02T08:17:41.610Z,56.06
2023-01-02T08:20:09.352Z,55.88
2023-01-02T08:22:36.204Z,56.30
2023-01-02T08:25:03.307Z,56.85
2023-01-02T08:27:30.020Z,57.72
2023-01-02T08:29:56.606Z,58.17
2023-01-02T08:32:23.199Z,59.33
2023-01-02T08:34:49.790Z,60.39
2023-01-02T08:37:16.484Z,60.75
2023-01-02T08:39:43.184Z,60.83
2023-01-02T08:42:09.975Z,62.06
2023-01-02T08:44:38.194Z,62.38
2023-01-02T08:47:06.017Z,62.70
2023-01-02T08:49:32.621Z,63.39
2023-01-02T08:51:59.285Z,64.14
2023-01-02T08:54:25.976Z,64.87
2023-01-02T08:56:52.665Z,65.24
2023-01-02T08:59:19.373Z,65.09
2023-01-02T09:01:46.196Z,65.86
2023-01-02T09:04:13.624Z,66.65
2023-01-02T09:06:41.179Z,66.61
2023-01-02T09:09:11.901Z,67.44
2023-01-02T09:11:51.120Z,67.86
2023-01-02T09:14:20.200Z,68.33
2023-01-02T09:16:47.607Z,69.28
2023-01-02T09:19:14.194Z,69.73
2023-01-02T09:21:40.816Z,69.63
2023-01-02T09:24:08.115Z,69.89
2023-01-02T09:26:35.196Z,71.39
2023-01-02T09:29:01.820Z,71.16
2023-01-02T09:31:28.457Z,71.56
2023-01-02T09:33:55.311Z,71.48
2023-01-02T09:36:22.727Z,72.28
2023-01-02T09:38:58.015Z,72.38
2023-01-02T09:41:53.103Z,71.51
2023-01-02T09:44:30.706Z,72.28
2023-01-02T09:47:04.242Z,72.11
2023-01-02T09:49:35.164Z,72.39
2023-01-02T09:52:01.864Z,71.92
2023-01-02T09:54:33.653Z,71.81
2023-01-02T09:57:31.151Z,72.26
2023-01-02T10:00:02.451Z,72.52
2023-01-02T10:03:07.405Z,72.59
2023-01-02T10:05:46.052Z,72.65
2023-01-02T10:08:46.122Z,72.82
2023-01-02T10:11:24.792Z,72.43
2023-01-02T10:14:20.626Z,73.11
2023-01-02T10:16:55.652Z,73.20
2023-01-02T10:19:31.085Z,73.64
2023-01-02T10:22:00.909Z,73.77
2023-01-02T10:24:42.231Z,74.14
2023-01-02T10:27:22.637Z,74.09
2023-01-02T10:30:01.180Z,74.38
2023-01-02T10:32:30.683Z,74.94
2023-01-02T10:35:06.226Z,74.75
2023-01-02T10:37:34.434Z,74.61
2023-01-02T10:40:01.393Z,75.07
2023-01-02T10:42:30.795Z,75.02
2023-01-02T10:44:57.375Z,75.67
2023-01-02T10:47:29.981Z,75.40
2023-01-02T10:49:57.279Z,75.28
2023-01-02T10:52:34.871Z,75.63
2023-01-02T10:55:03.159Z,75.86
2023-01-02T10:57:51.875Z,75.41
2023-01-02T11:00:22.575Z,75.83
2023-01-02T11:02:59.071Z,75.99
2023-01-02T11:05:31.268Z,76.21
2023-01-02T11:07:58.000Z,76.15
2023-01-02T11:10:28.367Z,76.94
2023-01-02T11:12:55.227Z,77.30
2023-01-02T11:15:30.981Z,77.20
2023-01-02T11:17:58.721Z,77.55
2023-01-02T11:20:30.610Z,77.84
2023-01-02T11:23:01.510Z,77.93
2023-01-02T11:25:40.671Z,78.05
2023-01-02T11:28:16.919Z,78.27
2023-01-02T11:30:46.610Z,78.75
2023-01-02T11:33:25.279Z,79.35
2023-01-02T11:36:18.847Z,78.87
2023-01-02T11:38:59.504Z,78.63
2023-01-02T11:41:45.940Z,78.83
2023-01-02T11:44:25.397Z,79.53
2023-01-02T11:46:53.257Z,79.22
2023-01-02T11:49:26.497Z,80.03
2023-01-02T11:51:58.039Z,80.06
2023-01-02T11:54:41.955Z,80.18
2023-01-02T11:57:19.241Z,79.54
2023-01-02T11:59:49.056Z,79.88
2023-01-02T12:02:22.123Z,80.00
2023-01-02T12:04:49.185Z,80.41
2023-01-02T12:07:42.066Z,80.43
2023-01-02T12:10:25.693Z,80.27
2023-01-02T12:13:14.997Z,80.18
2023-01-02T12:15:41.522Z,80.17
2023-01-02T12:18:26.454Z,80.07
2023-01-02T12:21:18.866Z,79.62
2023-01-02T12:23:48.520Z,79.05
2023-01-02T12:26:26.061Z,79.50
2023-01-02T12:29:46.082Z,79.54
2023-01-02T12:32:41.142Z,79.56
2023-01-02T12:35:41.801Z,78.13
2023-01-02T12:38:11.040Z,78.85
2023-01-02T12:40:59.661Z,78.43
2023-01-02T12:44:09.806Z,78.95
2023-01-02T12:47:02.122Z,79.07
2023-01-02T12:49:47.198Z,79.34
2023-01-02T12:52:42.902Z,79.77
2023-01-02T12:55:12.297Z,80.28
2023-01-02T12:57:44.724Z,79.53
2023-01-02T13:00:33.679Z,80.02
2023-01-02T13:03:23.220Z,79.67
2023-01-02T13:06:04.992Z,79.79
2023-01-02T13:09:03.479Z,80.41
2023-01-02T13:11:58.996Z,80.26
2023-01-02T13:14:37.176Z,80.75
2023-01-02T13:17:29.456Z,80.60
2023-01-02T13:39:44.092Z,80.14
2023-01-02T13:42:41.971Z,81.29
2023-01-02T13:45:16.135Z,81.44
2023-01-02T13:47:50.133Z,81.09
2023-01-02T13:50:32.563Z,80.69
2023-01-02T13:53:11.479Z,80.49
2023-01-02T13:55:41.180Z,80.04
2023-01-02T13:58:14.942Z,80.46
2023-01-02T14:00:51.594Z,80.33
2023-01-02T14:03:23.986Z,80.78
2023-01-02T14:05:56.800Z,79.57
2023-01-02T14:09:04.599Z,79.61
2023-01-02T14:11:55.736Z,79.80
2023-01-02T14:14:29.895Z,79.07
2023-01-02T14:17:05.828Z,79.04
2023-01-02T14:19:32.753Z,79.11
2023-01-02T14:21:59.288Z,78.44
2023-01-02T14:24:29.776Z,78.95
2023-01-02T14:27:04.838Z,78.73
2023-01-02T14:29:39.710Z,78.65
2023-01-02T14:32:17.288Z,79.07
2023-01-02T14:34:49.889Z,78.81
2023-01-02T14:37:44.083Z,79.43
2023-01-02T14:40:12.765Z,78.80
2023-01-02T14:43:00.323Z,79.18
2023-01-02T14:45:28.395Z,78.98
2023-01-02T14:48:00.929Z,78.48
2023-01-02T14:50:33.318Z,78.82
2023-01-02T14:53:09.949Z,78.19
2023-01-02T14:55:42.309Z,78.03
2023-01-02T14:58:48.533Z,77.66
2023-01-02T15:01:42.296Z,77.96
2023-01-02T15:04:17.074Z,78.20
2023-01-02T15:06:49.004Z,78.85
2023-01-02T15:09:28.467Z,78.39
2023-01-02T15:12:21.645Z,78.39
2023-01-02T15:14:48.218Z,78.70
2023-01-02T15:17:22.065Z,78.96
2023-01-02T15:19:49.358Z,79.34
2023-01-02T15:22:22.778Z,78.81
2023-01-02T15:24:52.064Z,79.28
2023-01-02T15:27:26.463Z,79.35
2023-01-02T15:30:17.551Z,79.29
2023-01-02T15:32:48.613Z,79.36
2023-01-02T15:35:30.043Z,79.67
2023-01-02T15:37:57.028Z,79.65
2023-01-02T15:40:23.596Z,80.22
2023-01-02T15:43:10.797Z,80.61
2023-01-02T15:45:45.004Z,80.69
2023-01-02T15:48:12.987Z,80.79
2023-01-02T15:50:40.703Z,80.42
2023-01-02T15:53:15.135Z,81.08
2023-01-02T15:55:42.199Z,80.89
2023-01-02T15:58:14.705Z,80.67
2023-01-02T16:00:42.368Z,80.96
2023-01-02T16:03:11.245Z,81.34
2023-01-02T16:05:49.612Z,81.32
2023-01-02T16:08:22.632Z,81.79
2023-01-02T16:10:51.473Z,81.65
2023-01-02T16:13:41.437Z,81.49
2023-01-02T16:16:15.719Z,82.17
2023-01-02T16:18:47.677Z,82.45
2023-01-02T16:21:16.112Z,81.98
2023-01-02T16:23:52.384Z,82.16
2023-01-02T16:26:21.787Z,82.34
2023-01-02T16:28:50.305Z,82.54
2023-01-02T16:31:19.881Z,82.48
2023-01-02T16:33:47.267Z,82.36
2023-01-02T16:36:16.800Z,82.39
2023-01-02T16:38:55.960Z,82.07
2023-01-02T16:41:36.598Z,81.56
2023-01-02T16:44:12.483Z,82.12
2023-01-02T16:46:43.058Z,81.68
2023-01-02T16:49:19.762Z,81.15
2023-01-02T16:51:50.564Z,81.05
2023-01-02T16:54:19.332Z,81.31
2023-01-02T16:56:47.112Z,80.92
2023-01-02T16:59:13.707Z,81.08
2023-01-02T17:01:40.390Z,81.29
2023-01-02T17:04:06.983Z,81.11
2023-01-02T17:06:33.641Z,81.11
2023-01-02T17:09:00.503Z,80.44
2023-01-02T17:11:27.302Z,80.60
2023-01-02T17:13:53.963Z,80.92
2023-01-02T17:16:20.744Z,80.87
2023-01-02T17:18:47.373Z,80.62
2023-01-02T17:21:14.293Z,81.15
2023-01-02T17:23:40.883Z,81.07
2023-01-02T17:26:07.495Z,81.42
2023-01-02T17:28:34.185Z,81.30
2023-01-02T17:31:00.896Z,81.32
2023-01-02T17:33:27.526Z,81.64
2023-01-02T17:35:54.177Z,81.35
2023-01-02T17:38:20.824Z,81.52
2023-01-02T17:40:47.501Z,81.59
2023-01-02T17:43:14.069Z,81.42
2023-01-02T17:45:42.978Z,81.14
2023-01-02T17:48:12.228Z,80.82
2023-01-02T17:50:40.789Z,81.42
2023-01-02T17:53:07.966Z,81.11
2023-01-02T17:55:34.930Z,80.93
2023-01-02T17:58:01.656Z,81.08
2023-01-02T18:00:28.744Z,80.96
2023-01-02T18:02:55.554Z,80.26
2023-01-02T18:05:22.961Z,80.54
2023-01-02T18:07:49.743Z,80.47
2023-01-02T18:10:20.035Z,80.16
2023-01-02T18:12:49.023Z,80.25
2023-01-02T18:15:16.469Z,80.17
2023-01-02T18:17:43.192Z,80.33
2023-01-02T18:20:12.825Z,80.24
2023-01-02T18:22:46.130Z,80.62
2023-01-02T18:25:27.606Z,80.38
2023-01-02T18:28:05.154Z,80.27
2023-01-02T18:30:31.835Z,80.98
2023-01-02T18:33:13.909Z,80.72
2023-01-02T18:35:57.220Z,81.17
2023-01-02T18:38:36.201Z,80.78
2023-01-02T18:41:24.403Z,80.74
2023-01-02T18:43:56.541Z,80.83
2023-01-02T18:47:04.646Z,80.80
2023-01-02T18:49:24.169Z,81.26
2023-01-02T18:52:17.072Z,80.91
2023-01-02T18:54:46.322Z,80.88
2023-01-02T18:57:18.379Z,80.70
2023-01-02T18:59:49.320Z,80.94
2023-01-02T19:02:39.833Z,80.39
2023-01-02T19:05:45.389Z,80.43
2023-01-02T19:08:25.508Z,80.34
2023-01-02T19:10:55.344Z,80.37
2023-01-02T19:13:32.328Z,80.37
2023-01-02T19:16:13.539Z,80.26
2023-01-02T19:18:41.822Z,80.08
2023-01-02T19:21:35.744Z,79.59
2023-01-02T19:24:24.199Z,80.03
2023-01-02T19:26:55.548Z,80.02
2023-01-02T19:29:24.839Z,79.62
2023-01-02T19:32:11.465Z,79.72
2023-01-02T19:34:52.080Z,79.52
2023-01-02T19:37:30.438Z,79.87
2023-01-02T19:40:00.195Z,79.79
2023-01-02T19:42:29.398Z,80.33
2023-01-02T19:45:01.721Z,80.33
2023-01-02T19:47:31.567Z,80.29
2023-01-02T19:49:59.324Z,80.23
2023-01-02T19:52:27.595Z,79.83
2023-01-02T19:54:54.827Z,80.25
2023-01-02T19:57:22.546Z,80.16
2023-01-02T19:59:50.992Z,80.54
2023-01-02T20:02:20.631Z,80.02
2023-01-02T20:04:50.029Z,80.01
2023-01-02T20:07:16.936Z,79.85
2023-01-02T20:09:44.507Z,80.03
2023-01-02T20:12:29.526Z,80.45
2023-01-02T20:15:07.349Z,80.01
2023-01-02T20:17:35.628Z,79.90
2023-01-02T20:20:03.087Z,80.04
2023-01-02T20:22:29.780Z,80.00
2023-01-02T20:24:56.351Z,79.96
2023-01-02T20:27:22.966Z,79.99
2023-01-02T20:29:51.028Z,80.51
2023-01-02T20:32:18.668Z,80.31
2023-01-02T20:34:45.335Z,80.33
2023-01-02T20:37:11.976Z,80.28
2023-01-02T20:39:38.608Z,80.12
2023-01-02T20:42:13.027Z,80.46
2023-01-02T20:44:40.325Z,79.89
2023-01-02T20:47:06.916Z,80.68
2023-01-02T20:49:33.470Z,81.04
2023-01-02T20:52:00.136Z,81.18
2023-01-02T20:54:27.056Z,80.93
2023-01-02T20:56:54.039Z,80.99
2023-01-02T20:59:21.335Z,81.28
2023-01-02T21:01:48.172Z,81.35
2023-01-02T21:04:18.793Z,80.99
2023-01-02T21:06:51.326Z,81.04
2023-01-02T21:09:17.839Z,81.38
2023-01-02T21:11:44.413Z,81.51
2023-01-02T21:14:11.076Z,81.03
2023-01-02T21:16:37.866Z,80.80
2023-01-02T21:19:04.644Z,81.05
2023-01-02T21:21:31.273Z,80.94
2023-01-02T21:23:57.904Z,81.14
2023-01-02T21:26:24.528Z,81.02
2023-01-02T21:28:51.217Z,80.41
2023-01-02T21:31:19.465Z,80.83
2023-01-02T21:33:47.201Z,80.85
2023-01-02T21:36:15.648Z,80.76
2023-01-02T21:38:43.579Z,80.73
2023-01-02T21:41:28.745Z,80.78
2023-01-02T21:43:55.556Z,80.72
2023-01-02T21:46:22.199Z,80.24
2023-01-02T21:48:49.019Z,80.76
2023-01-02T21:51:15.705Z,80.63
2023-01-02T21:53:42.273Z,80.70
2023-01-02T21:56:09.490Z,80.53
2023-01-02T21:58:36.200Z,80.57
2023-01-02T22:01:02.869Z,80.73
2023-01-02T22:03:29.731Z,80.77
2023-01-02T22:05:56.467Z,80.48
2023-01-02T22:08:23.028Z,80.62
2023-01-02T22:10:49.822Z,80.47
2023-01-02T22:13:16.573Z,80.50
2023-01-02T22:15:45.683Z,80.77
2023-01-02T22:18:12.797Z,80.42
2023-01-02T22:20:39.417Z,80.83
2023-01-02T22:23:06.084Z,80.81
2023-01-02T22:25:32.869Z,80.78
2023-01-02T22:27:59.650Z,80.73
2023-01-02T22:30:33.997Z,80.67
2023-01-02T22:33:02.191Z,81.18
2023-01-02T22:35:29.114Z,80.81
2023-01-02T22:37:57.304Z,81.13
2023-01-02T22:40:23.957Z,80.98
2023-01-02T22:43:05.427Z,80.59
2023-01-02T22:45:53.616Z,80.79
2023-01-02T22:48:20.109Z,80.81
2023-01-02T22:50:48.220Z,80.92
2023-01-02T22:53:37.915Z,80.96
2023-01-02T22:56:16.629Z,81.18
2023-01-02T22:58:43.848Z,81.04
2023-01-02T23:01:25.760Z,81.24
2023-01-02T23:03:52.390Z,81.34
2023-01-02T23:06:22.119Z,81.60
2023-01-02T23:08:49.379Z,81.52
2023-01-02T23:11:16.063Z,81.67
2023-01-02T23:13:43.346Z,81.78
2023-01-02T23:16:29.403Z,81.46
2023-01-02T23:19:14.715Z,81.61
2023-01-02T23:21:44.165Z,81.90
2023-01-02T23:24:12.517Z,81.43
2023-01-02T23:26:42.091Z,81.76
2023-01-02T23:29:09.602Z,81.63
2023-01-02T23:31:39.905Z,81.48
2023-01-02T23:34:07.263Z,81.46
2023-01-02T23:36:34.477Z,81.48
2023-01-02T23:39:02.186Z,81.47
2023-01-02T23:41:28.761Z,81.78
2023-01-02T23:43:55.364Z,81.50
2023-01-02T23:46:22.084Z,81.73
2023-01-02T23:48:48.837Z,81.37
2023-01-02T23:51:15.492Z,81.50
2023-01-02T23:53:42.093Z,81.69
2023-01-02T23:56:25.223Z,81.56
2023-01-02T23:58:53.526Z,81.70
